Time;durP1;ratioP1;P1;durP2;ratioP2;P2;SDS_P1;SDS_P2;PMS_P1;PMS_P2;Temp;Humidity;BMP_temperature;BMP_pressure;BME280_temperature;BME280_humidity;BME280_pressure;Samples;Min_cycle;Max_cycle;Signal;HPM_P1;HPM_P2
2024/02/20 02:32:24;;;;;;;4.10;2.30;;;;;;;5.53;100.00;99401.39;273317;1262;22406;-87
2024/02/20 02:38:25;;;;;;;5.10;2.30;;;;;;;5.53;100.00;99395.87;271798;1274;22541;-87
2024/02/20 02:44:27;;;;;;;3.50;2.50;;;;;;;5.53;100.00;99400.06;271858;1273;22417;-88
2024/02/20 02:50:28;;;;;;;4.70;2.20;;;;;;;5.53;100.00;99405.36;272135;1273;23482;-87
2024/02/20 02:56:29;;;;;;;5.90;2.50;;;;;;;5.54;100.00;99404.63;272008;1271;22443;-89
2024/02/20 03:02:30;;;;;;;5.30;2.40;;;;;;;5.54;100.00;99407.18;272226;1272;23265;-88
2024/02/20 03:08:33;;;;;;;4.20;2.40;;;;;;;5.56;100.00;99412.91;272317;1272;23446;-88
2024/02/20 03:14:34;;;;;;;4.40;3.00;;;;;;;5.56;100.00;99407.11;271272;1265;22541;-88
2024/02/20 03:20:35;;;;;;;8.20;3.60;;;;;;;5.55;100.00;99399.54;270468;1272;22202;-88
2024/02/20 03:26:39;;;;;;;6.40;2.00;;;;;;;5.56;100.00;99408.51;272059;1272;23918;-88
2024/02/20 03:32:40;;;;;;;3.90;2.00;;;;;;;5.57;100.00;99407.37;271974;1272;22638;-89
2024/02/20 03:38:42;;;;;;;4.00;2.60;;;;;;;5.57;100.00;99405.72;272264;1272;22304;-88
2024/02/20 03:44:43;;;;;;;5.30;2.90;;;;;;;5.57;100.00;99406.52;272196;1272;23208;-89
2024/02/20 03:50:44;;;;;;;3.10;2.10;;;;;;;5.56;100.00;99407.07;271804;1272;22206;-89
2024/02/20 03:56:46;;;;;;;5.00;1.70;;;;;;;5.54;100.00;99408.95;272260;1272;22469;-88
2024/02/20 04:02:47;;;;;;;3.50;1.10;;;;;;;5.54;100.00;99416.09;271765;1272;22299;-89
2024/02/20 04:08:48;;;;;;;2.20;1.40;;;;;;;5.52;100.00;99415.91;272328;1272;23064;-88
2024/02/20 04:14:49;;;;;;;1.80;1.00;;;;;;;5.51;100.00;99420.31;272132;1272;22557;-89
2024/02/20 04:20:51;;;;;;;3.00;1.50;;;;;;;5.50;100.00;99422.75;271006;1272;22569;-89
2024/02/20 04:26:53;;;;;;;3.00;1.40;;;;;;;5.47;100.00;99419.71;269384;1272;22986;-88
2024/02/20 04:32:54;;;;;;;2.80;1.40;;;;;;;5.45;100.00;99411.40;268836;1272;22559;-88
2024/02/20 04:38:57;;;;;;;4.00;2.10;;;;;;;5.42;100.00;99414.55;271660;1272;22626;-89
2024/02/20 04:44:58;;;;;;;5.10;2.60;;;;;;;5.42;100.00;99409.19;270526;1272;22543;-89
2024/02/20 04:50:59;;;;;;;4.90;2.80;;;;;;;5.42;100.00;99406.41;270525;1272;22225;-89
2024/02/20 04:57:00;;;;;;;5.20;3.30;;;;;;;5.40;100.00;99404.25;270774;1264;23643;-89
2024/02/20 05:03:02;;;;;;;4.20;3.10;;;;;;;5.38;100.00;99407.19;272327;1272;22552;-87
2024/02/20 05:09:05;;;;;;;3.70;3.30;;;;;;;5.36;100.00;99411.84;272308;1272;22422;-87
2024/02/20 05:15:07;;;;;;;5.90;3.70;;;;;;;5.38;100.00;99415.02;272182;1268;22436;-88
2024/02/20 05:21:08;;;;;;;5.90;3.70;;;;;;;5.41;100.00;99418.30;272421;1272;22368;-89
2024/02/20 05:27:09;;;;;;;5.70;4.40;;;;;;;5.43;100.00;99421.92;272278;1269;22457;-88
2024/02/20 05:33:10;;;;;;;6.20;3.90;;;;;;;5.40;100.00;99419.46;272109;1272;22347;-87
2024/02/20 05:39:12;;;;;;;5.10;3.70;;;;;;;5.40;100.00;99414.16;272079;1272;23392;-88
2024/02/20 05:45:14;;;;;;;5.80;4.50;;;;;;;5.36;100.00;99415.17;272186;1272;22505;-88
2024/02/20 05:51:16;;;;;;;8.70;5.30;;;;;;;5.34;100.00;99416.70;272402;1272;22259;-89
2024/02/20 05:57:18;;;;;;;8.60;5.70;;;;;;;5.35;100.00;99422.33;272162;1272;22541;-88
2024/02/20 06:03:18;;;;;;;9.90;5.60;;;;;;;5.37;100.00;99425.14;272164;1267;22580;-89
2024/02/20 06:09:20;;;;;;;7.70;4.90;;;;;;;5.41;100.00;99429.47;272130;1272;23305;-88
2024/02/20 06:15:22;;;;;;;9.70;5.50;;;;;;;5.44;100.00;99430.66;272254;1272;23340;-89
2024/02/20 06:21:23;;;;;;;10.40;5.30;;;;;;;5.46;100.00;99437.74;272307;1272;22379;-88
2024/02/20 06:27:24;;;;;;;9.70;5.70;;;;;;;5.51;100.00;99443.59;272164;1272;22420;-88
2024/02/20 06:33:26;;;;;;;8.10;5.00;;;;;;;5.57;100.00;99450.66;272402;1270;22232;-89
2024/02/20 06:39:28;;;;;;;8.30;5.30;;;;;;;5.62;100.00;99452.41;272742;1270;22194;-90
2024/02/20 06:45:29;;;;;;;7.80;4.90;;;;;;;5.71;100.00;99450.94;272091;1270;22559;-88
2024/02/20 06:51:30;;;;;;;7.20;4.20;;;;;;;5.83;100.00;99447.38;272376;1269;24113;-89
2024/02/20 06:57:31;;;;;;;7.20;4.80;;;;;;;5.96;100.00;99455.39;272646;1269;23105;-88
2024/02/20 07:03:32;;;;;;;10.10;5.40;;;;;;;6.04;100.00;99457.02;272878;1269;22217;-88
2024/02/20 07:09:35;;;;;;;11.90;7.00;;;;;;;6.24;100.00;99459.45;272719;1269;22423;-88
2024/02/20 07:15:39;;;;;;;11.10;7.10;;;;;;;6.59;100.00;99460.27;271828;1269;22476;-88
2024/02/20 07:21:40;;;;;;;9.10;5.70;;;;;;;6.88;100.00;99466.98;272422;1270;22559;-89
2024/02/20 07:27:44;;;;;;;10.10;6.40;;;;;;;7.30;100.00;99468.59;272853;1269;22408;-89
2024/02/20 07:33:45;;;;;;;14.10;7.70;;;;;;;7.59;100.00;99470.91;272706;1269;22479;-88
2024/02/20 07:39:46;;;;;;;8.40;5.70;;;;;;;7.75;100.00;99474.49;272314;1269;22457;-89
2024/02/20 07:45:47;;;;;;;8.40;5.20;;;;;;;7.82;100.00;99471.83;271950;1268;26759;-89
2024/02/20 07:51:48;;;;;;;6.70;4.40;;;;;;;7.74;100.00;99473.85;270898;1269;23825;-90
2024/02/20 07:57:51;;;;;;;6.70;4.30;;;;;;;7.63;100.00;99478.13;272262;1269;23257;-90
2024/02/20 08:03:53;;;;;;;6.10;3.30;;;;;;;7.55;100.00;99487.19;272735;1269;22409;-89
2024/02/20 08:09:55;;;;;;;5.30;3.70;;;;;;;7.45;100.00;99489.69;272678;1269;22449;-90
2024/02/20 08:15:58;;;;;;;5.40;3.50;;;;;;;7.33;100.00;99492.59;272536;1269;22291;-88
2024/02/20 08:21:59;;;;;;;6.60;3.90;;;;;;;7.25;100.00;99492.80;271762;1269;22422;-89
2024/02/20 08:28:05;;;;;;;8.00;4.10;;;;;;;7.20;100.00;99487.27;272909;1269;23935;-89
2024/02/20 08:34:06;;;;;;;6.20;3.80;;;;;;;7.20;100.00;99488.33;272421;1269;22546;-89
2024/02/20 08:40:08;;;;;;;6.00;4.00;;;;;;;7.23;100.00;99489.98;272817;1269;23672;-88
2024/02/20 08:46:09;;;;;;;9.70;5.40;;;;;;;7.26;100.00;99493.20;272787;1269;23257;-89
2024/02/20 08:52:10;;;;;;;8.00;4.90;;;;;;;7.30;100.00;99497.22;272321;1269;22447;-90
2024/02/20 08:58:11;;;;;;;7.70;5.30;;;;;;;7.28;100.00;99505.02;272894;1269;22306;-89
2024/02/20 09:04:13;;;;;;;10.90;5.70;;;;;;;7.27;100.00;99514.78;272695;1269;22422;-90
2024/02/20 09:10:17;;;;;;;8.30;5.80;;;;;;;7.26;100.00;99516.48;272742;1269;23547;-89
2024/02/20 09:16:21;;;;;;;13.10;8.60;;;;;;;7.20;100.00;99521.33;271158;1269;23160;-90
2024/02/20 09:22:24;;;;;;;16.00;8.80;;;;;;;7.15;100.00;99522.67;272227;1268;22387;-89
2024/02/20 09:28:25;;;;;;;18.10;11.00;;;;;;;7.18;100.00;99527.17;272988;1269;22449;-88
2024/02/20 09:34:27;;;;;;;15.60;9.00;;;;;;;7.23;100.00;99525.21;271789;1269;22393;-89
2024/02/20 09:40:28;;;;;;;13.20;9.70;;;;;;;7.32;100.00;99527.73;270209;1269;23211;-89
2024/02/20 09:46:34;;;;;;;10.00;6.50;;;;;;;7.45;100.00;99527.07;272033;1269;22421;-89
2024/02/20 09:52:35;;;;;;;9.50;6.10;;;;;;;7.55;100.00;99523.41;272401;1270;22534;-89
2024/02/20 09:58:36;;;;;;;6.60;4.90;;;;;;;7.65;100.00;99524.80;272619;1269;22361;-89
2024/02/20 10:04:40;;;;;;;8.00;5.20;;;;;;;7.77;100.00;99523.47;272457;1270;145363;-90
2024/02/20 10:10:45;;;;;;;8.80;5.00;;;;;;;7.90;100.00;99522.36;271266;1269;22552;-89
2024/02/20 10:16:46;;;;;;;7.60;4.80;;;;;;;7.94;100.00;99523.33;269615;1269;22605;-88
2024/02/20 10:22:47;;;;;;;9.30;6.20;;;;;;;8.01;100.00;99525.52;270350;1270;22354;-88
2024/02/20 10:28:51;;;;;;;15.60;9.00;;;;;;;7.94;100.00;99522.34;270803;1269;22425;-89
2024/02/20 10:34:59;;;;;;;18.70;9.50;;;;;;;7.80;100.00;99514.14;270431;1260;23568;-90
2024/02/20 10:41:01;;;;;;;11.30;7.50;;;;;;;7.71;100.00;99511.59;270913;1262;23687;-89
2024/02/20 10:47:05;;;;;;;10.10;7.40;;;;;;;7.67;100.00;99505.02;270441;1269;22551;-90
2024/02/20 10:53:10;;;;;;;9.90;6.30;;;;;;;7.69;100.00;99491.05;269870;1269;23267;-90
2024/02/20 10:59:11;;;;;;;12.80;7.90;;;;;;;7.69;100.00;99496.35;269998;1269;23912;-91
2024/02/20 11:05:13;;;;;;;14.40;8.80;;;;;;;7.70;100.00;99493.58;269884;1270;23830;-91
2024/02/20 11:11:15;;;;;;;13.60;6.70;;;;;;;7.76;100.00;99489.41;270565;1269;22641;-90
2024/02/20 11:17:20;;;;;;;11.40;7.70;;;;;;;7.75;100.00;99484.23;271325;1270;23490;-89
2024/02/20 11:23:28;;;;;;;9.10;6.80;;;;;;;7.70;100.00;99479.88;270058;1269;23730;-90
2024/02/20 11:29:29;;;;;;;12.00;7.00;;;;;;;7.68;100.00;99476.69;269786;1269;22551;-90
2024/02/20 11:35:31;;;;;;;13.90;8.20;;;;;;;7.70;100.00;99475.05;270945;1270;23742;-91
2024/02/20 11:41:40;;;;;;;11.70;6.90;;;;;;;7.75;100.00;99474.98;272644;1269;22466;-90
2024/02/20 11:47:41;;;;;;;12.80;7.70;;;;;;;7.79;100.00;99471.81;272661;1269;22430;-90
2024/02/20 11:53:43;;;;;;;10.40;6.50;;;;;;;7.82;100.00;99473.92;271590;1269;23214;-89
2024/02/20 11:59:45;;;;;;;12.70;7.20;;;;;;;7.85;100.00;99467.33;271148;1269;23347;-90
2024/02/20 12:05:51;;;;;;;9.30;6.80;;;;;;;7.97;100.00;99463.70;270240;1269;22453;-90
2024/02/20 12:11:53;;;;;;;8.70;6.50;;;;;;;8.17;100.00;99459.04;272428;1269;22437;-89
2024/02/20 12:17:54;;;;;;;11.80;8.20;;;;;;;8.38;100.00;99452.77;272485;1269;22556;-90
2024/02/20 12:23:57;;;;;;;10.20;6.80;;;;;;;8.61;100.00;99449.27;272707;1258;22646;-90
2024/02/20 12:29:59;;;;;;;11.30;7.50;;;;;;;8.79;100.00;99447.00;270508;1269;22217;-92
2024/02/20 12:36:00;;;;;;;13.50;7.10;;;;;;;8.90;100.00;99449.16;271302;1269;22608;-91
2024/02/20 12:42:05;;;;;;;9.60;5.90;;;;;;;9.05;100.00;99446.40;270128;1269;23200;-89
2024/02/20 12:48:07;;;;;;;10.50;5.70;;;;;;;9.13;100.00;99443.41;270321;1269;23739;-89
2024/02/20 12:54:08;;;;;;;10.40;5.90;;;;;;;9.13;100.00;99446.52;270948;1269;22616;-89
2024/02/20 13:00:13;;;;;;;11.10;6.90;;;;;;;9.04;100.00;99445.21;270867;1269;23188;-91
2024/02/20 13:06:20;;;;;;;8.40;4.90;;;;;;;8.92;100.00;99445.61;271445;1272;22365;-90
2024/02/20 13:12:29;;;;;;;8.90;5.10;;;;;;;8.83;100.00;99440.40;271693;1269;22572;-89
2024/02/20 13:18:30;;;;;;;7.40;4.90;;;;;;;8.85;100.00;99441.07;270932;1269;25329;-88
2024/02/20 13:24:38;;;;;;;6.70;3.70;;;;;;;8.79;100.00;99445.73;272104;1269;22448;-90
2024/02/20 13:30:41;;;;;;;5.70;2.80;;;;;;;8.58;100.00;99442.48;270771;1269;22570;-89
2024/02/20 13:36:43;;;;;;;4.50;2.80;;;;;;;8.33;100.00;99435.20;271128;1269;22381;-89
2024/02/20 13:42:44;;;;;;;7.10;4.20;;;;;;;8.29;100.00;99429.88;271630;1270;22188;-90
2024/02/20 13:48:45;;;;;;;8.20;5.40;;;;;;;8.28;100.00;99436.54;270541;1269;23436;-89
2024/02/20 13:54:50;;;;;;;8.30;6.30;;;;;;;8.28;100.00;99443.01;270224;1269;22204;-89
2024/02/20 14:00:54;;;;;;;12.10;6.30;;;;;;;8.27;100.00;99443.30;271667;1269;22537;-88
2024/02/20 14:06:55;;;;;;;12.90;7.00;;;;;;;8.25;100.00;99444.89;270825;1270;22202;-89
2024/02/20 14:13:00;;;;;;;10.60;7.60;;;;;;;8.28;100.00;99446.83;271318;1269;22217;-90
2024/02/20 14:19:02;;;;;;;12.50;7.80;;;;;;;8.36;100.00;99445.10;270192;1269;24960;-89
2024/02/20 14:25:05;;;;;;;10.50;6.30;;;;;;;8.36;100.00;99449.14;270737;1269;22179;-90
2024/02/20 14:31:09;;;;;;;10.50;6.00;;;;;;;8.32;100.00;99451.60;271867;1270;23097;-89
2024/02/20 14:37:10;;;;;;;8.20;5.80;;;;;;;8.23;100.00;99467.25;271334;1263;22586;-89
2024/02/20 14:43:13;;;;;;;3.30;2.50;;;;;;;7.93;100.00;99479.78;272709;1269;22372;-89
2024/02/20 14:49:14;;;;;;;3.30;1.90;;;;;;;7.55;100.00;99483.92;271872;1269;22456;-88
2024/02/20 14:55:16;;;;;;;4.00;1.80;;;;;;;7.28;100.00;99485.42;270583;1269;23486;-88
2024/02/20 15:01:22;;;;;;;4.80;2.00;;;;;;;7.04;100.00;99488.27;270751;1270;23754;-88
2024/02/20 15:07:23;;;;;;;4.00;1.50;;;;;;;6.84;100.00;99487.86;270140;1270;22548;-89
2024/02/20 15:13:24;;;;;;;4.40;2.70;;;;;;;6.68;100.00;99480.86;272694;1269;24256;-88
2024/02/20 15:19:25;;;;;;;4.90;2.00;;;;;;;6.61;100.00;99487.47;271490;1270;22408;-88
2024/02/20 15:25:27;;;;;;;2.90;2.10;;;;;;;6.56;100.00;99487.43;272316;1263;23025;-88
2024/02/20 15:31:28;;;;;;;3.40;2.30;;;;;;;6.51;100.00;99492.39;271778;1270;23368;-88
2024/02/20 15:37:29;;;;;;;8.00;3.70;;;;;;;6.50;100.00;99495.63;270988;1270;22224;-88
2024/02/20 15:43:33;;;;;;;11.70;5.10;;;;;;;6.47;100.00;99503.68;272746;1270;22566;-88
2024/02/20 15:49:34;;;;;;;8.90;5.80;;;;;;;6.46;100.00;99507.13;270539;1269;24499;-88
2024/02/20 15:55:36;;;;;;;10.90;7.10;;;;;;;6.41;100.00;99504.57;270990;1269;22552;-88
2024/02/20 16:01:37;;;;;;;15.50;9.40;;;;;;;6.37;100.00;99504.52;270519;1269;22527;-87
2024/02/20 16:07:39;;;;;;;17.80;11.20;;;;;;;6.35;100.00;99506.30;271412;1268;23322;-87
2024/02/20 16:13:40;;;;;;;25.80;14.20;;;;;;;6.34;100.00;99508.29;270108;1269;22806;-88
2024/02/20 16:19:41;;;;;;;23.30;14.30;;;;;;;6.34;100.00;99508.89;270898;1269;25700;-88
2024/02/20 16:25:43;;;;;;;28.60;15.90;;;;;;;6.35;100.00;99510.64;271468;1269;23025;-87
2024/02/20 16:31:49;;;;;;;28.60;16.80;;;;;;;6.34;100.00;99519.14;270029;1269;22541;-88
2024/02/20 16:37:51;;;;;;;26.60;15.90;;;;;;;6.27;100.00;99528.15;269831;1269;22567;-89
2024/02/20 16:43:55;;;;;;;21.00;14.20;;;;;;;6.23;100.00;99534.42;270911;1269;22530;-88
2024/02/20 16:49:59;;;;;;;22.20;14.60;;;;;;;6.17;100.00;99541.68;271539;1269;22305;-88
2024/02/20 16:56:01;;;;;;;21.40;13.80;;;;;;;6.09;100.00;99546.58;271672;1269;22194;-88
2024/02/20 17:02:04;;;;;;;24.50;16.00;;;;;;;5.97;100.00;99555.59;271888;1269;22546;-89
2024/02/20 17:08:08;;;;;;;24.80;16.60;;;;;;;5.90;100.00;99561.15;270995;1269;22556;-89
2024/02/20 17:14:11;;;;;;;27.60;17.00;;;;;;;5.92;100.00;99567.52;270760;1262;22555;-90
2024/02/20 17:20:14;;;;;;;28.50;17.10;;;;;;;5.94;100.00;99564.81;272118;1269;22566;-89
2024/02/20 17:26:15;;;;;;;26.60;17.00;;;;;;;5.94;100.00;99569.70;272574;1269;22457;-91
2024/02/20 17:32:19;;;;;;;25.70;15.70;;;;;;;5.96;100.00;99573.90;272316;1270;22479;-90
2024/02/20 17:38:20;;;;;;;26.50;16.60;;;;;;;5.97;100.00;99578.89;272469;1269;22211;-90
2024/02/20 17:44:22;;;;;;;30.70;17.50;;;;;;;6.00;100.00;99583.28;272148;1270;23492;-89
2024/02/20 17:50:24;;;;;;;32.10;18.80;;;;;;;6.01;100.00;99587.69;272266;1270;22407;-90
2024/02/20 17:56:28;;;;;;;33.10;18.20;;;;;;;5.99;100.00;99585.35;271462;1269;22579;-89
2024/02/20 18:02:48;;;;;;;31.20;19.60;;;;;;;5.98;100.00;99579.87;271073;1269;23369;-90
2024/02/20 18:09:13;;;;;;;33.30;20.00;;;;;;;5.98;100.00;99574.41;272034;1269;23905;-90
2024/02/20 18:15:15;;;;;;;36.80;19.50;;;;;;;5.97;100.00;99578.73;271815;1269;22489;-89
2024/02/20 18:21:16;;;;;;;36.30;19.60;;;;;;;5.94;100.00;99587.77;271153;1269;22636;-89
2024/02/20 18:27:23;;;;;;;33.20;20.20;;;;;;;5.87;100.00;99594.90;272553;1269;23044;-90
2024/02/20 18:33:47;;;;;;;32.90;17.70;;;;;;;5.82;100.00;99600.74;271113;1269;23902;-91
2024/02/20 18:40:46;;;;;;;29.30;17.70;;;;;;;5.83;100.00;99609.87;271350;1270;22436;-90
2024/02/20 18:46:36;;;;;;;33.60;19.50;;;;;;;5.86;100.00;99613.84;271777;1269;25409;-89
2024/02/20 18:53:14;;;;;;;34.30;19.10;;;;;;;5.85;100.00;99614.13;271029;1269;22326;-90
2024/02/20 19:00:03;;;;;;;39.50;21.80;;;;;;;5.85;100.00;99617.33;272092;1262;22450;-89
2024/02/20 19:06:31;;;;;;;32.90;20.90;;;;;;;5.87;100.00;99622.65;271647;1269;22447;-90
2024/02/20 19:13:45;;;;;;;;;;;;;;;;;;;;;
2024/02/20 19:20:26;;;;;;;30.00;18.20;;;;;;;5.88;100.00;99625.81;270987;1266;23940;-87
2024/02/20 19:26:42;;;;;;;28.90;17.90;;;;;;;5.87;100.00;99630.13;271301;1271;25461;-91
2024/02/20 19:32:44;;;;;;;29.50;16.10;;;;;;;5.85;100.00;99629.98;271141;1270;22396;-88
2024/02/20 19:38:48;;;;;;;25.90;15.10;;;;;;;5.81;100.00;99630.57;271419;1270;24658;-88
2024/02/20 19:44:50;;;;;;;28.10;16.10;;;;;;;5.79;100.00;99634.43;272011;1270;22479;-88
2024/02/20 19:50:57;;;;;;;25.20;16.20;;;;;;;5.79;100.00;99633.35;272389;1270;22465;-89
2024/02/20 19:57:04;;;;;;;31.30;16.80;;;;;;;5.80;100.00;99634.23;271584;1270;22922;-89
2024/02/20 20:03:28;;;;;;;28.40;16.30;;;;;;;5.79;100.00;99635.23;271383;1270;22468;-89
2024/02/20 20:09:43;;;;;;;26.40;16.00;;;;;;;5.76;100.00;99635.31;271862;1270;23068;-89
2024/02/20 20:15:46;;;;;;;23.40;15.00;;;;;;;5.72;100.00;99642.30;271891;1264;22461;-89
2024/02/20 20:22:05;;;;;;;24.10;15.10;;;;;;;5.69;100.00;99644.04;272336;1270;22366;-90
2024/02/20 20:28:30;;;;;;;18.80;12.70;;;;;;;5.67;100.00;99650.18;271717;1270;22506;-89
2024/02/20 20:34:37;;;;;;;20.10;12.10;;;;;;;5.66;100.00;99646.87;270257;1270;23400;-89
2024/02/20 20:40:42;;;;;;;22.50;12.10;;;;;;;5.63;100.00;99643.64;263557;1270;10001843;-88
2024/02/20 20:46:43;;;;;;;17.10;10.90;;;;;;;5.62;100.00;99642.83;272051;1270;22263;-88
2024/02/20 20:52:47;;;;;;;21.60;12.30;;;;;;;5.62;100.00;99646.77;271600;1270;22222;-89
2024/02/20 20:58:49;;;;;;;17.40;11.50;;;;;;;5.61;100.00;99649.06;272651;1270;22494;-89
2024/02/20 21:04:52;;;;;;;18.70;10.60;;;;;;;5.60;100.00;99661.11;272218;1271;23067;-89
2024/02/20 21:10:56;;;;;;;14.30;8.90;;;;;;;5.57;100.00;99662.95;272370;1266;22500;-89
2024/02/20 21:16:57;;;;;;;12.70;6.80;;;;;;;5.51;100.00;99663.95;272330;1270;22218;-90
2024/02/20 21:22:59;;;;;;;11.80;6.20;;;;;;;5.45;100.00;99668.67;272510;1270;23723;-90
2024/02/20 21:29:00;;;;;;;10.00;4.80;;;;;;;5.41;100.00;99670.67;272476;1270;22320;-88
2024/02/20 21:35:01;;;;;;;12.00;5.40;;;;;;;5.37;100.00;99674.06;272386;1270;23503;-90
2024/02/20 21:41:03;;;;;;;12.30;4.60;;;;;;;5.34;100.00;99682.07;270670;1270;22417;-89
2024/02/20 21:47:06;;;;;;;11.00;4.70;;;;;;;5.29;100.00;99681.73;271696;1270;22352;-90
2024/02/20 21:53:09;;;;;;;10.10;4.80;;;;;;;5.26;100.00;99683.36;271730;1270;22388;-89
2024/02/20 21:59:13;;;;;;;11.90;4.90;;;;;;;5.23;100.00;99684.00;272492;1264;22890;-89
2024/02/20 22:05:15;;;;;;;13.10;6.20;;;;;;;5.20;100.00;99693.02;272161;1270;379774;-89
2024/02/20 22:11:16;;;;;;;12.00;5.80;;;;;;;5.18;100.00;99687.59;272517;1270;22384;-89
2024/02/20 22:17:17;;;;;;;16.40;6.70;;;;;;;5.15;100.00;99685.98;270593;1262;22385;-89
2024/02/20 22:23:19;;;;;;;12.50;6.90;;;;;;;5.12;100.00;99689.42;271677;1270;22569;-88
2024/02/20 22:29:20;;;;;;;14.60;6.10;;;;;;;5.09;100.00;99694.24;270115;1262;22216;-89
2024/02/20 22:35:25;;;;;;;15.60;6.50;;;;;;;5.04;100.00;99699.85;271824;1271;22301;-89
2024/02/20 22:41:27;;;;;;;13.10;7.10;;;;;;;5.01;100.00;99698.38;271155;1271;22343;-88
2024/02/20 22:47:29;;;;;;;14.90;7.50;;;;;;;4.95;100.00;99702.05;271333;1270;22498;-88
2024/02/20 22:53:31;;;;;;;17.00;8.40;;;;;;;4.90;100.00;99705.95;271787;1270;22235;-88
2024/02/20 22:59:34;;;;;;;15.50;7.80;;;;;;;4.87;100.00;99712.11;269746;1270;23353;-87
2024/02/20 23:05:36;;;;;;;11.60;7.80;;;;;;;4.84;100.00;99716.33;269565;1270;22560;-88
2024/02/20 23:11:37;;;;;;;16.60;8.00;;;;;;;4.82;100.00;99716.13;270030;1271;22628;-89
2024/02/20 23:17:41;;;;;;;17.00;7.80;;;;;;;4.77;100.00;99721.60;270421;1271;24242;-88
2024/02/20 23:23:42;;;;;;;17.90;8.20;;;;;;;4.75;100.00;99721.73;270944;1272;22213;-89
2024/02/20 23:29:44;;;;;;;17.50;9.20;;;;;;;4.74;100.00;99723.83;270490;1270;22192;-88
2024/02/20 23:35:45;;;;;;;19.70;9.90;;;;;;;4.72;100.00;99729.09;271166;1270;23204;-89
2024/02/20 23:41:48;;;;;;;19.30;9.60;;;;;;;4.70;100.00;99728.10;270814;1271;22362;-90
2024/02/20 23:47:50;;;;;;;21.00;10.00;;;;;;;4.69;100.00;99729.00;269956;1270;22564;-89
2024/02/20 23:53:51;;;;;;;27.90;12.70;;;;;;;4.65;100.00;99724.27;270121;1271;22376;-89
2024/02/20 23:59:55;;;;;;;24.20;11.10;;;;;;;4.57;100.00;99724.84;271904;1270;23316;-90
